sensor_id;sensor_type;location;lat;lon;timestamp;pressure;altitude;pressure_sealevel;temperature;humidity
84358;BME280;74548;47.712;9.272;2024-02-21T00:01:05;96723.75;;;10.51;64.13
84358;BME280;74548;47.712;9.272;2024-02-21T00:03:30;96733.75;;;10.50;63.79
84358;BME280;74548;47.712;9.272;2024-02-21T00:05:56;96738.31;;;10.50;64.39
84358;BME280;74548;47.712;9.272;2024-02-21T00:08:21;96737.50;;;10.49;63.77
84358;BME280;74548;47.712;9.272;2024-02-21T00:10:46;96736.69;;;10.49;64.07
84358;BME280;74548;47.712;9.272;2024-02-21T00:13:12;96736.97;;;10.47;63.70
84358;BME280;74548;47.712;9.272;2024-02-21T00:15:37;96739.66;;;10.47;63.83
84358;BME280;74548;47.712;9.272;2024-02-21T00:18:03;96735.31;;;10.46;64.18
84358;BME280;74548;47.712;9.272;2024-02-21T00:20:28;96734.78;;;10.44;64.04
84358;BME280;74548;47.712;9.272;2024-02-21T00:22:53;96740.19;;;10.44;64.00
84358;BME280;74548;47.712;9.272;2024-02-21T00:25:19;96727.75;;;10.43;63.78
84358;BME280;74548;47.712;9.272;2024-02-21T00:27:45;96729.63;;;10.42;64.03
84358;BME280;74548;47.712;9.272;2024-02-21T00:30:10;96733.41;;;10.41;63.64
84358;BME280;74548;47.712;9.272;2024-02-21T00:32:36;96730.72;;;10.41;63.88
84358;BME280;74548;47.712;9.272;2024-02-21T00:35:02;96729.91;;;10.41;63.71
84358;BME280;74548;47.712;9.272;2024-02-21T00:37:27;96724.75;;;10.39;63.78
84358;BME280;74548;47.712;9.272;2024-02-21T00:39:54;96722.31;;;10.38;63.65
84358;BME280;74548;47.712;9.272;2024-02-21T00:42:19;96712.59;;;10.37;63.69
84358;BME280;74548;47.712;9.272;2024-02-21T00:47:10;96709.88;;;10.37;64.15
84358;BME280;74548;47.712;9.272;2024-02-21T00:49:35;96708.28;;;10.36;63.42
84358;BME280;74548;47.712;9.272;2024-02-21T00:52:01;96710.16;;;10.35;63.71
84358;BME280;74548;47.712;9.272;2024-02-21T00:54:26;96709.34;;;10.35;63.97
84358;BME280;74548;47.712;9.272;2024-02-21T00:56:51;96707.72;;;10.34;63.98
84358;BME280;74548;47.712;9.272;2024-02-21T00:59:18;96704.19;;;10.33;63.86
84358;BME280;74548;47.712;9.272;2024-02-21T01:01:43;96705.28;;;10.32;64.00
84358;BME280;74548;47.712;9.272;2024-02-21T01:04:09;96704.47;;;10.32;63.75
84358;BME280;74548;47.712;9.272;2024-02-21T01:06:34;96698.50;;;10.30;63.95
84358;BME280;74548;47.712;9.272;2024-02-21T01:09:00;96696.91;;;10.29;64.08
84358;BME280;74548;47.712;9.272;2024-02-21T01:13:48;96688.25;;;10.27;63.48
84358;BME280;74548;47.712;9.272;2024-02-21T01:16:13;96680.16;;;10.27;64.29
84358;BME280;74548;47.712;9.272;2024-02-21T01:18:39;96678.50;;;10.26;63.91
84358;BME280;74548;47.712;9.272;2024-02-21T01:21:04;96678.50;;;10.26;63.52
84358;BME280;74548;47.712;9.272;2024-02-21T01:23:33;96667.97;;;10.24;64.26
84358;BME280;74548;47.712;9.272;2024-02-21T01:25:58;96669.84;;;10.23;63.85
84358;BME280;74548;47.712;9.272;2024-02-21T01:28:24;96676.06;;;10.24;63.55
84358;BME280;74548;47.712;9.272;2024-02-21T01:30:49;96666.34;;;10.23;64.41
84358;BME280;74548;47.712;9.272;2024-02-21T01:33:14;96670.13;;;10.22;63.93
84358;BME280;74548;47.712;9.272;2024-02-21T01:35:40;96672.00;;;10.21;64.27
84358;BME280;74548;47.712;9.272;2024-02-21T01:38:05;96673.88;;;10.21;63.96
84358;BME280;74548;47.712;9.272;2024-02-21T01:40:30;96673.06;;;10.20;64.29
84358;BME280;74548;47.712;9.272;2024-02-21T01:42:56;96663.34;;;10.19;63.99
84358;BME280;74548;47.712;9.272;2024-02-21T01:45:21;96662.53;;;10.19;63.86
84358;BME280;74548;47.712;9.272;2024-02-21T01:47:47;96674.16;;;10.19;64.14
84358;BME280;74548;47.712;9.272;2024-02-21T01:50:14;96673.59;;;10.17;64.15
84358;BME280;74548;47.712;9.272;2024-02-21T01:52:41;96671.97;;;10.16;64.00
84358;BME280;74548;47.712;9.272;2024-02-21T01:57:28;96670.34;;;10.15;64.13
84358;BME280;74548;47.712;9.272;2024-02-21T01:59:54;96656.88;;;10.15;64.40
84358;BME280;74548;47.712;9.272;2024-02-21T02:02:20;96656.06;;;10.15;64.06
84358;BME280;74548;47.712;9.272;2024-02-21T02:07:15;96645.50;;;10.13;64.33
84358;BME280;74548;47.712;9.272;2024-02-21T02:09:41;96643.09;;;10.12;64.17
84358;BME280;74548;47.712;9.272;2024-02-21T02:12:07;96626.06;;;10.11;64.04
84358;BME280;74548;47.712;9.272;2024-02-21T02:14:33;96621.50;;;10.12;64.00
84358;BME280;74548;47.712;9.272;2024-02-21T02:16:58;96619.88;;;10.11;63.73
84358;BME280;74548;47.712;9.272;2024-02-21T02:19:23;96619.06;;;10.10;64.05
84358;BME280;74548;47.712;9.272;2024-02-21T02:21:56;96617.44;;;10.09;64.38
84358;BME280;74548;47.712;9.272;2024-02-21T02:24:25;96611.25;;;10.09;64.14
84358;BME280;74548;47.712;9.272;2024-02-21T02:26:53;96604.19;;;10.08;64.04
84358;BME280;74548;47.712;9.272;2024-02-21T02:31:44;96606.09;;;10.07;64.07
84358;BME280;74548;47.712;9.272;2024-02-21T02:34:09;96607.19;;;10.06;64.31
84358;BME280;74548;47.712;9.272;2024-02-21T02:39:00;96602.84;;;10.05;64.02
84358;BME280;74548;47.712;9.272;2024-02-21T02:41:25;96601.22;;;10.04;64.05
84358;BME280;74548;47.712;9.272;2024-02-21T02:43:51;96598.53;;;10.04;64.60
84358;BME280;74548;47.712;9.272;2024-02-21T02:46:16;96598.53;;;10.04;64.38
84358;BME280;74548;47.712;9.272;2024-02-21T02:48:41;96590.72;;;10.03;64.48
84358;BME280;74548;47.712;9.272;2024-02-21T02:51:07;96587.16;;;10.02;64.35
84358;BME280;74548;47.712;9.272;2024-02-21T02:53:32;96590.94;;;10.01;64.63
84358;BME280;74548;47.712;9.272;2024-02-21T02:55:57;96595.25;;;10.02;64.11
84358;BME280;74548;47.712;9.272;2024-02-21T02:58:23;96583.94;;;10.00;64.26
84358;BME280;74548;47.712;9.272;2024-02-21T03:03:11;96571.53;;;9.99;64.71
84358;BME280;74548;47.712;9.272;2024-02-21T03:05:36;96563.69;;;9.97;64.41
84358;BME280;74548;47.712;9.272;2024-02-21T03:08:02;96571.78;;;9.97;64.27
84358;BME280;74548;47.712;9.272;2024-02-21T03:10:32;96579.06;;;9.97;64.31
84358;BME280;74548;47.712;9.272;2024-02-21T03:15:22;96568.53;;;9.95;64.12
84358;BME280;74548;47.712;9.272;2024-02-21T03:17:47;96562.31;;;9.95;64.22
84358;BME280;74548;47.712;9.272;2024-02-21T03:20:12;96555.31;;;9.94;64.71
84358;BME280;74548;47.712;9.272;2024-02-21T03:22:38;96552.63;;;9.94;63.85
84358;BME280;74548;47.712;9.272;2024-02-21T03:25:04;96559.09;;;9.93;64.22
84358;BME280;74548;47.712;9.272;2024-02-21T03:27:29;96555.56;;;9.92;64.20
84358;BME280;74548;47.712;9.272;2024-02-21T03:29:54;96542.09;;;9.92;64.19
84358;BME280;74548;47.712;9.272;2024-02-21T03:32:20;96530.50;;;9.92;64.37
84358;BME280;74548;47.712;9.272;2024-02-21T03:34:45;96530.50;;;9.92;63.99
84358;BME280;74548;47.712;9.272;2024-02-21T03:37:10;96522.69;;;9.90;64.41
84358;BME280;74548;47.712;9.272;2024-02-21T03:39:36;96519.19;;;9.90;64.54
84358;BME280;74548;47.712;9.272;2024-02-21T03:42:02;96517.28;;;9.90;64.53
84358;BME280;74548;47.712;9.272;2024-02-21T03:44:30;96516.47;;;9.90;64.56
84358;BME280;74548;47.712;9.272;2024-02-21T03:46:56;96505.13;;;9.88;63.84
84358;BME280;74548;47.712;9.272;2024-02-21T03:49:21;96516.72;;;9.88;64.25
84358;BME280;74548;47.712;9.272;2024-02-21T03:51:47;96505.94;;;9.88;64.58
84358;BME280;74548;47.712;9.272;2024-02-21T03:54:12;96507.03;;;9.87;64.01
84358;BME280;74548;47.712;9.272;2024-02-21T03:56:38;96503.53;;;9.87;64.80
84358;BME280;74548;47.712;9.272;2024-02-21T03:59:09;96509.97;;;9.86;64.29
84358;BME280;74548;47.712;9.272;2024-02-21T04:06:25;96497.56;;;9.85;64.83
84358;BME280;74548;47.712;9.272;2024-02-21T04:08:50;96498.38;;;9.85;64.52
84358;BME280;74548;47.712;9.272;2024-02-21T04:11:15;96492.19;;;9.85;64.16
84358;BME280;74548;47.712;9.272;2024-02-21T04:16:01;96478.13;;;9.83;64.30
84358;BME280;74548;47.712;9.272;2024-02-21T04:18:28;96475.44;;;9.83;64.07
84358;BME280;74548;47.712;9.272;2024-02-21T04:20:53;96466.56;;;9.82;64.44
84358;BME280;74548;47.712;9.272;2024-02-21T04:23:19;96467.34;;;9.83;64.32
84358;BME280;74548;47.712;9.272;2024-02-21T04:25:44;96452.53;;;9.80;63.97
84358;BME280;74548;47.712;9.272;2024-02-21T04:30:40;96457.09;;;9.80;64.09
84358;BME280;74548;47.712;9.272;2024-02-21T04:33:05;96455.47;;;9.79;64.15
84358;BME280;74548;47.712;9.272;2024-02-21T04:35:31;96468.16;;;9.78;63.91
84358;BME280;74548;47.712;9.272;2024-02-21T04:37:56;96463.00;;;9.76;64.66
84358;BME280;74548;47.712;9.272;2024-02-21T04:40:21;96452.22;;;9.76;64.60
84358;BME280;74548;47.712;9.272;2024-02-21T04:42:47;96462.22;;;9.76;64.40
84358;BME280;74548;47.712;9.272;2024-02-21T04:45:12;96451.69;;;9.74;64.55
84358;BME280;74548;47.712;9.272;2024-02-21T04:47:37;96449.00;;;9.74;64.38
84358;BME280;74548;47.712;9.272;2024-02-21T04:50:03;96460.84;;;9.73;64.27
84358;BME280;74548;47.712;9.272;2024-02-21T04:52:28;96453.84;;;9.72;64.29
84358;BME280;74548;47.712;9.272;2024-02-21T04:54:55;96457.34;;;9.73;64.14
84358;BME280;74548;47.712;9.272;2024-02-21T04:57:20;96444.94;;;9.72;64.52
84358;BME280;74548;47.712;9.272;2024-02-21T04:59:46;96454.91;;;9.71;63.96
84358;BME280;74548;47.712;9.272;2024-02-21T05:04:34;96441.69;;;9.70;64.08
84358;BME280;74548;47.712;9.272;2024-02-21T05:07:02;96439.00;;;9.70;64.03
84358;BME280;74548;47.712;9.272;2024-02-21T05:09:27;96430.09;;;9.69;64.44
84358;BME280;74548;47.712;9.272;2024-02-21T05:11:52;96432.00;;;9.69;63.79
84358;BME280;74548;47.712;9.272;2024-02-21T05:14:18;96421.50;;;9.67;63.92
84358;BME280;74548;47.712;9.272;2024-02-21T05:16:43;96416.09;;;9.67;64.43
84358;BME280;74548;47.712;9.272;2024-02-21T05:19:08;96403.69;;;9.66;64.18
84358;BME280;74548;47.712;9.272;2024-02-21T05:21:34;96401.25;;;9.65;64.86
84358;BME280;74548;47.712;9.272;2024-02-21T05:23:59;96396.91;;;9.64;64.05
84358;BME280;74548;47.712;9.272;2024-02-21T05:26:27;96404.19;;;9.63;64.04
84358;BME280;74548;47.712;9.272;2024-02-21T05:28:52;96401.50;;;9.63;64.02
84358;BME280;74548;47.712;9.272;2024-02-21T05:33:30;96408.78;;;9.63;63.57
84358;BME280;74548;47.712;9.272;2024-02-21T05:35:55;96414.16;;;9.63;64.26
84358;BME280;74548;47.712;9.272;2024-02-21T05:38:20;96414.16;;;9.63;64.06
84358;BME280;74548;47.712;9.272;2024-02-21T05:40:46;96405.28;;;9.62;63.97
84358;BME280;74548;47.712;9.272;2024-02-21T05:43:13;96397.19;;;9.62;64.28
84358;BME280;74548;47.712;9.272;2024-02-21T05:45:38;96384.81;;;9.61;64.38
84358;BME280;74548;47.712;9.272;2024-02-21T05:48:04;96376.72;;;9.61;64.57
84358;BME280;74548;47.712;9.272;2024-02-21T05:50:29;96373.19;;;9.61;64.09
84358;BME280;74548;47.712;9.272;2024-02-21T05:52:55;96376.16;;;9.59;64.28
84358;BME280;74548;47.712;9.272;2024-02-21T05:57:49;96369.16;;;9.58;64.32
84358;BME280;74548;47.712;9.272;2024-02-21T06:02:34;96364.81;;;9.57;63.88
84358;BME280;74548;47.712;9.272;2024-02-21T06:07:19;96359.72;;;9.56;64.55
84358;BME280;74548;47.712;9.272;2024-02-21T06:09:44;96368.84;;;9.54;64.20
84358;BME280;74548;47.712;9.272;2024-02-21T06:12:09;96376.13;;;9.54;64.18
84358;BME280;74548;47.712;9.272;2024-02-21T06:14:35;96381.53;;;9.54;64.31
84358;BME280;74548;47.712;9.272;2024-02-21T06:17:00;96381.53;;;9.54;64.53
84358;BME280;74548;47.712;9.272;2024-02-21T06:19:26;96381.53;;;9.54;64.14
84358;BME280;74548;47.712;9.272;2024-02-21T06:21:51;96367.53;;;9.52;64.59
84358;BME280;74548;47.712;9.272;2024-02-21T06:26:53;96357.53;;;9.52;64.74
84358;BME280;74548;47.712;9.272;2024-02-21T06:29:18;96355.94;;;9.51;64.12
84358;BME280;74548;47.712;9.272;2024-02-21T06:31:44;96352.41;;;9.51;64.44
84358;BME280;74548;47.712;9.272;2024-02-21T06:34:09;96349.72;;;9.51;64.22
84358;BME280;74548;47.712;9.272;2024-02-21T06:36:34;96350.00;;;9.49;64.51
84358;BME280;74548;47.712;9.272;2024-02-21T06:39:00;96352.69;;;9.49;64.38
84358;BME280;74548;47.712;9.272;2024-02-21T06:41:25;96354.28;;;9.50;64.38
84358;BME280;74548;47.712;9.272;2024-02-21T06:43:50;96364.25;;;9.50;64.37
84358;BME280;74548;47.712;9.272;2024-02-21T06:46:26;96365.34;;;9.49;64.19
84358;BME280;74548;47.712;9.272;2024-02-21T06:48:53;96361.84;;;9.48;64.16
84358;BME280;74548;47.712;9.272;2024-02-21T06:51:18;96354.81;;;9.47;64.38
84358;BME280;74548;47.712;9.272;2024-02-21T06:53:44;96345.94;;;9.47;64.59
84358;BME280;74548;47.712;9.272;2024-02-21T06:56:10;96345.94;;;9.47;64.12
84358;BME280;74548;47.712;9.272;2024-02-21T06:58:36;96345.94;;;9.47;64.13
84358;BME280;74548;47.712;9.272;2024-02-21T07:01:01;96340.53;;;9.47;64.87
84358;BME280;74548;47.712;9.272;2024-02-21T07:03:27;96345.13;;;9.46;64.03
84358;BME280;74548;47.712;9.272;2024-02-21T07:05:52;96345.13;;;9.46;64.38
84358;BME280;74548;47.712;9.272;2024-02-21T07:08:17;96347.00;;;9.46;64.19
84358;BME280;74548;47.712;9.272;2024-02-21T07:10:43;96350.50;;;9.46;64.70
84358;BME280;74548;47.712;9.272;2024-02-21T07:13:08;96360.47;;;9.46;64.73
84358;BME280;74548;47.712;9.272;2024-02-21T07:15:34;96356.16;;;9.45;64.29
84358;BME280;74548;47.712;9.272;2024-02-21T07:18:01;96355.09;;;9.46;64.68
84358;BME280;74548;47.712;9.272;2024-02-21T07:20:26;96352.41;;;9.46;64.69
84358;BME280;74548;47.712;9.272;2024-02-21T07:22:52;96352.41;;;9.46;64.21
84358;BME280;74548;47.712;9.272;2024-02-21T07:25:17;96354.28;;;9.45;64.30
84358;BME280;74548;47.712;9.272;2024-02-21T07:27:44;96362.38;;;9.45;64.72
84358;BME280;74548;47.712;9.272;2024-02-21T07:30:09;96358.84;;;9.45;64.66
84358;BME280;74548;47.712;9.272;2024-02-21T07:32:35;96358.03;;;9.44;64.71
84358;BME280;74548;47.712;9.272;2024-02-21T07:37:14;96353.72;;;9.43;64.42
84358;BME280;74548;47.712;9.272;2024-02-21T07:39:40;96354.53;;;9.44;64.47
84358;BME280;74548;47.712;9.272;2024-02-21T07:42:06;96353.72;;;9.43;64.50
84358;BME280;74548;47.712;9.272;2024-02-21T07:44:31;96353.72;;;9.43;64.59
84358;BME280;74548;47.712;9.272;2024-02-21T07:46:57;96352.66;;;9.44;64.30
84358;BME280;74548;47.712;9.272;2024-02-21T07:49:23;96355.34;;;9.44;64.34
84358;BME280;74548;47.712;9.272;2024-02-21T07:51:48;96341.06;;;9.44;64.02
84358;BME280;74548;47.712;9.272;2024-02-21T07:54:13;96349.16;;;9.44;64.25
84358;BME280;74548;47.712;9.272;2024-02-21T07:56:39;96348.06;;;9.45;64.73
84358;BME280;74548;47.712;9.272;2024-02-21T07:59:05;96343.75;;;9.44;63.85
84358;BME280;74548;47.712;9.272;2024-02-21T08:01:30;96336.47;;;9.44;65.01
84358;BME280;74548;47.712;9.272;2024-02-21T08:03:55;96328.16;;;9.46;64.26
84358;BME280;74548;47.712;9.272;2024-02-21T08:06:20;96333.53;;;9.46;64.33
84358;BME280;74548;47.712;9.272;2024-02-21T08:08:46;96328.97;;;9.46;65.06
84358;BME280;74548;47.712;9.272;2024-02-21T08:11:11;96319.00;;;9.47;64.42
84358;BME280;74548;47.712;9.272;2024-02-21T08:13:36;96316.84;;;9.49;64.27
84358;BME280;74548;47.712;9.272;2024-02-21T08:18:25;96316.03;;;9.48;64.23
84358;BME280;74548;47.712;9.272;2024-02-21T08:20:51;96310.63;;;9.43;64.04
84358;BME280;74548;47.712;9.272;2024-02-21T08:23:16;96308.19;;;9.37;64.01
84358;BME280;74548;47.712;9.272;2024-02-21T08:25:42;96308.94;;;9.27;63.45
84358;BME280;74548;47.712;9.272;2024-02-21T08:28:07;96305.69;;;9.20;63.54
84358;BME280;74548;47.712;9.272;2024-02-21T08:30:33;96304.28;;;9.12;63.50
84358;BME280;74548;47.712;9.272;2024-02-21T08:32:59;96314.75;;;9.03;63.13
84358;BME280;74548;47.712;9.272;2024-02-21T08:35:24;96303.41;;;8.96;62.57
84358;BME280;74548;47.712;9.272;2024-02-21T08:37:50;96312.28;;;8.92;62.19
84358;BME280;74548;47.712;9.272;2024-02-21T08:40:15;96326.25;;;8.89;61.83
84358;BME280;74548;47.712;9.272;2024-02-21T08:42:46;96312.50;;;8.85;61.66
84358;BME280;74548;47.712;9.272;2024-02-21T08:45:11;96318.13;;;8.83;62.04
84358;BME280;74548;47.712;9.272;2024-02-21T08:47:39;96316.50;;;8.82;61.34
84358;BME280;74548;47.712;9.272;2024-02-21T08:50:05;96321.34;;;8.80;61.19
84358;BME280;74548;47.712;9.272;2024-02-21T08:52:31;96319.22;;;8.82;60.98
84358;BME280;74548;47.712;9.272;2024-02-21T08:54:57;96311.66;;;8.79;61.05
84358;BME280;74548;47.712;9.272;2024-02-21T08:57:22;96309.78;;;8.80;60.56
84358;BME280;74548;47.712;9.272;2024-02-21T08:59:47;96301.94;;;8.78;60.36
84358;BME280;74548;47.712;9.272;2024-02-21T09:02:13;96311.91;;;8.78;59.92
84358;BME280;74548;47.712;9.272;2024-02-21T09:04:38;96314.84;;;8.76;60.12
84358;BME280;74548;47.712;9.272;2024-02-21T09:07:04;96309.47;;;8.76;59.66
84358;BME280;74548;47.712;9.272;2024-02-21T09:09:29;96301.94;;;8.78;60.23
84358;BME280;74548;47.712;9.272;2024-02-21T09:11:54;96299.81;;;8.80;59.61
84358;BME280;74548;47.712;9.272;2024-02-21T09:14:20;96297.13;;;8.80;59.05
84358;BME280;74548;47.712;9.272;2024-02-21T09:16:45;96295.22;;;8.81;59.50
84358;BME280;74548;47.712;9.272;2024-02-21T09:19:10;96291.50;;;8.82;59.43
84358;BME280;74548;47.712;9.272;2024-02-21T09:21:39;96296.59;;;8.83;59.62
84358;BME280;74548;47.712;9.272;2024-02-21T09:24:07;96293.91;;;8.83;58.87
84358;BME280;74548;47.712;9.272;2024-02-21T09:26:33;96293.09;;;8.83;59.07
84358;BME280;74548;47.712;9.272;2024-02-21T09:31:21;96287.97;;;8.81;59.26
84358;BME280;74548;47.712;9.272;2024-02-21T09:33:46;96286.63;;;8.79;59.65
84358;BME280;74548;47.712;9.272;2024-02-21T09:36:12;96280.41;;;8.78;58.64
84358;BME280;74548;47.712;9.272;2024-02-21T09:38:39;96282.81;;;8.75;58.01
84358;BME280;74548;47.712;9.272;2024-02-21T09:41:18;96285.50;;;8.75;59.04
84358;BME280;74548;47.712;9.272;2024-02-21T09:43:49;96279.31;;;8.74;59.00
84358;BME280;74548;47.712;9.272;2024-02-21T09:46:17;96275.81;;;8.74;58.28
84358;BME280;74548;47.712;9.272;2024-02-21T09:51:41;96277.94;;;8.72;58.23
84358;BME280;74548;47.712;9.272;2024-02-21T09:54:08;96277.16;;;8.71;58.30
84358;BME280;74548;47.712;9.272;2024-02-21T09:56:34;96275.25;;;8.72;58.81
84358;BME280;74548;47.712;9.272;2024-02-21T09:59:01;96268.53;;;8.69;58.49
84358;BME280;74548;47.712;9.272;2024-02-21T10:01:30;96268.25;;;8.71;58.75
84358;BME280;74548;47.712;9.272;2024-02-21T10:03:57;96269.06;;;8.71;58.56
84358;BME280;74548;47.712;9.272;2024-02-21T10:06:22;96265.34;;;8.72;58.80
84358;BME280;74548;47.712;9.272;2024-02-21T10:08:54;96254.56;;;8.72;58.71
84358;BME280;74548;47.712;9.272;2024-02-21T10:11:26;96259.94;;;8.72;58.76
84358;BME280;74548;47.712;9.272;2024-02-21T10:14:02;96255.38;;;8.73;58.97
84358;BME280;74548;47.712;9.272;2024-02-21T10:16:29;96253.47;;;8.73;58.93
84358;BME280;74548;47.712;9.272;2024-02-21T10:18:54;96256.19;;;8.73;58.76
84358;BME280;74548;47.712;9.272;2024-02-21T10:21:19;96255.91;;;8.75;58.21
84358;BME280;74548;47.712;9.272;2024-02-21T10:23:46;96252.41;;;8.74;58.85
84358;BME280;74548;47.712;9.272;2024-02-21T10:26:12;96244.09;;;8.76;59.11
84358;BME280;74548;47.712;9.272;2024-02-21T10:28:38;96241.41;;;8.76;58.74
84358;BME280;74548;47.712;9.272;2024-02-21T10:31:11;96236.25;;;8.74;58.31
84358;BME280;74548;47.712;9.272;2024-02-21T10:33:40;96234.66;;;8.73;58.64
84358;BME280;74548;47.712;9.272;2024-02-21T10:36:10;96234.38;;;8.75;58.25
84358;BME280;74548;47.712;9.272;2024-02-21T10:38:39;96231.16;;;8.78;58.30
84358;BME280;74548;47.712;9.272;2024-02-21T10:41:05;96239.00;;;8.79;58.78
84358;BME280;74548;47.712;9.272;2024-02-21T10:43:37;96232.53;;;8.80;58.53
84358;BME280;74548;47.712;9.272;2024-02-21T10:46:05;96215.28;;;8.81;58.63
84358;BME280;74548;47.712;9.272;2024-02-21T10:48:41;96211.56;;;8.82;57.18
84358;BME280;74548;47.712;9.272;2024-02-21T10:51:17;96218.53;;;8.83;57.27
84358;BME280;74548;47.712;9.272;2024-02-21T10:53:56;96205.66;;;8.86;57.36
84358;BME280;74548;47.712;9.272;2024-02-21T10:58:42;96191.09;;;8.87;56.46
84358;BME280;74548;47.712;9.272;2024-02-21T11:01:09;96187.34;;;8.88;56.49
84358;BME280;74548;47.712;9.272;2024-02-21T11:03:35;96189.78;;;8.89;56.69
84358;BME280;74548;47.712;9.272;2024-02-21T11:06:02;96189.50;;;8.91;56.70
84358;BME280;74548;47.712;9.272;2024-02-21T11:08:30;96181.44;;;8.91;56.09
84358;BME280;74548;47.712;9.272;2024-02-21T11:10:59;96175.78;;;8.92;56.99
84358;BME280;74548;47.712;9.272;2024-02-21T11:13:32;96174.72;;;8.93;56.36
84358;BME280;74548;47.712;9.272;2024-02-21T11:16:10;96175.53;;;8.94;56.76
84358;BME280;74548;47.712;9.272;2024-02-21T11:18:39;96174.19;;;8.96;56.74
84358;BME280;74548;47.712;9.272;2024-02-21T11:21:04;96161.28;;;8.98;57.17
84358;BME280;74548;47.712;9.272;2024-02-21T11:23:30;96163.44;;;9.01;57.57
84358;BME280;74548;47.712;9.272;2024-02-21T11:28:31;96153.19;;;9.03;56.87
84358;BME280;74548;47.712;9.272;2024-02-21T11:31:07;96137.88;;;9.04;56.87
84358;BME280;74548;47.712;9.272;2024-02-21T11:33:33;96133.03;;;9.06;56.52
84358;BME280;74548;47.712;9.272;2024-02-21T11:35:58;96129.28;;;9.07;56.89
84358;BME280;74548;47.712;9.272;2024-02-21T11:38:24;96127.38;;;9.07;57.23
84358;BME280;74548;47.712;9.272;2024-02-21T11:40:50;96111.22;;;9.07;56.98
84358;BME280;74548;47.712;9.272;2024-02-21T11:43:15;96111.75;;;9.10;56.20
84358;BME280;74548;47.712;9.272;2024-02-21T11:45:42;96103.69;;;9.10;56.36
84358;BME280;74548;47.712;9.272;2024-02-21T11:48:07;96095.09;;;9.07;56.46
84358;BME280;74548;47.712;9.272;2024-02-21T11:50:36;96102.88;;;9.09;56.68
84358;BME280;74548;47.712;9.272;2024-02-21T11:53:02;96102.63;;;9.11;56.46
84358;BME280;74548;47.712;9.272;2024-02-21T11:55:28;96093.47;;;9.12;57.46
84358;BME280;74548;47.712;9.272;2024-02-21T11:57:53;96085.38;;;9.12;56.23
84358;BME280;74548;47.712;9.272;2024-02-21T12:00:19;96068.44;;;9.11;56.34
84358;BME280;74548;47.712;9.272;2024-02-21T12:02:50;96065.44;;;9.13;56.82
84358;BME280;74548;47.712;9.272;2024-02-21T12:05:15;96052.00;;;9.13;56.44
84358;BME280;74548;47.712;9.272;2024-02-21T12:07:41;96047.41;;;9.13;55.95
84358;BME280;74548;47.712;9.272;2024-02-21T12:10:11;96046.34;;;9.14;56.08
84358;BME280;74548;47.712;9.272;2024-02-21T12:12:37;96043.38;;;9.16;56.20
84358;BME280;74548;47.712;9.272;2024-02-21T12:15:07;96049.56;;;9.16;55.29
84358;BME280;74548;47.712;9.272;2024-02-21T12:17:33;96042.31;;;9.17;56.22
84358;BME280;74548;47.712;9.272;2024-02-21T12:20:00;96027.22;;;9.16;56.49
84358;BME280;74548;47.712;9.272;2024-02-21T12:22:26;96026.97;;;9.17;56.62
84358;BME280;74548;47.712;9.272;2024-02-21T12:24:52;96026.69;;;9.19;56.54
84358;BME280;74548;47.712;9.272;2024-02-21T12:27:17;96015.66;;;9.20;56.78
84358;BME280;74548;47.712;9.272;2024-02-21T12:29:42;96008.09;;;9.22;57.43
84358;BME280;74548;47.712;9.272;2024-02-21T12:32:08;96005.97;;;9.24;57.60
84358;BME280;74548;47.712;9.272;2024-02-21T12:34:33;96002.97;;;9.26;57.69
84358;BME280;74548;47.712;9.272;2024-02-21T12:36:59;96003.53;;;9.28;57.18
84358;BME280;74548;47.712;9.272;2024-02-21T12:39:25;95996.78;;;9.30;57.70
84358;BME280;74548;47.712;9.272;2024-02-21T12:41:53;96002.19;;;9.30;57.81
84358;BME280;74548;47.712;9.272;2024-02-21T12:44:19;95997.34;;;9.33;57.54
84358;BME280;74548;47.712;9.272;2024-02-21T12:46:44;95988.19;;;9.34;57.08
84358;BME280;74548;47.712;9.272;2024-02-21T12:49:10;95987.09;;;9.35;58.13
84358;BME280;74548;47.712;9.272;2024-02-21T12:51:35;95984.94;;;9.37;57.33
84358;BME280;74548;47.712;9.272;2024-02-21T12:54:01;95982.81;;;9.39;58.24
84358;BME280;74548;47.712;9.272;2024-02-21T12:56:29;95966.63;;;9.39;58.11
84358;BME280;74548;47.712;9.272;2024-02-21T12:58:56;95962.84;;;9.40;58.28
84358;BME280;74548;47.712;9.272;2024-02-21T13:01:22;95957.47;;;9.40;58.43
84358;BME280;74548;47.712;9.272;2024-02-21T13:03:48;95952.59;;;9.42;57.91
84358;BME280;74548;47.712;9.272;2024-02-21T13:06:13;95948.84;;;9.43;58.51
84358;BME280;74548;47.712;9.272;2024-02-21T13:08:39;95935.38;;;9.43;58.55
84358;BME280;74548;47.712;9.272;2024-02-21T13:13:21;95928.63;;;9.45;58.96
84358;BME280;74548;47.712;9.272;2024-02-21T13:15:46;95928.63;;;9.45;59.60
84358;BME280;74548;47.712;9.272;2024-02-21T13:18:12;95921.88;;;9.48;59.53
84358;BME280;74548;47.712;9.272;2024-02-21T13:20:38;95905.72;;;9.48;59.16
84358;BME280;74548;47.712;9.272;2024-02-21T13:23:03;95903.56;;;9.50;59.22
84358;BME280;74548;47.712;9.272;2024-02-21T13:25:29;95900.88;;;9.50;59.41
84358;BME280;74548;47.712;9.272;2024-02-21T13:27:55;95903.31;;;9.51;59.06
84358;BME280;74548;47.712;9.272;2024-02-21T13:30:21;95892.22;;;9.53;59.14
84358;BME280;74548;47.712;9.272;2024-02-21T13:32:47;95881.47;;;9.53;59.50
84358;BME280;74548;47.712;9.272;2024-02-21T13:35:13;95876.88;;;9.53;59.12
84358;BME280;74548;47.712;9.272;2024-02-21T13:37:40;95874.19;;;9.53;59.18
84358;BME280;74548;47.712;9.272;2024-02-21T13:40:06;95871.22;;;9.55;59.42
84358;BME280;74548;47.712;9.272;2024-02-21T13:42:34;95876.63;;;9.55;59.11
84358;BME280;74548;47.712;9.272;2024-02-21T13:45:00;95860.16;;;9.57;59.98
84358;BME280;74548;47.712;9.272;2024-02-21T13:47:26;95850.19;;;9.57;59.60
84358;BME280;74548;47.712;9.272;2024-02-21T13:49:51;95846.44;;;9.58;59.84
84358;BME280;74548;47.712;9.272;2024-02-21T13:52:17;95836.44;;;9.59;59.79
84358;BME280;74548;47.712;9.272;2024-02-21T13:54:45;95833.47;;;9.60;60.22
84358;BME280;74548;47.712;9.272;2024-02-21T13:59:35;95817.84;;;9.62;60.32
84358;BME280;74548;47.712;9.272;2024-02-21T14:02:01;95811.34;;;9.63;60.88
84358;BME280;74548;47.712;9.272;2024-02-21T14:04:26;95808.41;;;9.65;61.16